Time;durP1;ratioP1;P1;durP2;ratioP2;P2;SDS_P1;SDS_P2;PMS_P1;PMS_P2;Temp;Humidity;BMP_temperature;BMP_pressure;BME280_temperature;BME280_humidity;BME280_pressure;Samples;Min_cycle;Max_cycle;Signal;HPM_P1;HPM_P2
2024/02/22 00:00:55;;;;;;;1.77;0.90;;;10.70;99.90;;;;;;5028761;28;20060;-75
2024/02/22 00:03:22;;;;;;;3.20;1.00;;;10.70;99.90;;;;;;5008844;28;20413;-75
2024/02/22 00:05:49;;;;;;;1.63;0.70;;;10.80;99.90;;;;;;5042299;28;20423;-75
2024/02/22 00:08:16;;;;;;;2.42;0.80;;;10.80;99.90;;;;;;5044673;28;20546;-75
2024/02/22 00:10:43;;;;;;;1.63;0.60;;;10.80;99.90;;;;;;5027211;28;20053;-75
2024/02/22 00:13:10;;;;;;;1.23;0.68;;;10.80;99.90;;;;;;5036687;28;20440;-75
2024/02/22 00:15:37;;;;;;;2.15;0.82;;;10.80;99.90;;;;;;5035170;28;20049;-75
2024/02/22 00:18:04;;;;;;;1.63;0.93;;;10.80;99.90;;;;;;5024990;28;20049;-74
2024/02/22 00:20:32;;;;;;;1.58;1.17;;;10.80;99.90;;;;;;5039581;28;20083;-76
2024/02/22 00:23:00;;;;;;;3.33;1.17;;;10.80;99.90;;;;;;5041493;28;20060;-74
2024/02/22 00:25:27;;;;;;;1.05;0.60;;;10.80;99.90;;;;;;4998982;28;20388;-75
2024/02/22 00:27:54;;;;;;;1.60;0.93;;;10.80;99.90;;;;;;5021945;28;20120;-75
2024/02/22 00:30:23;;;;;;;2.88;0.88;;;10.80;99.90;;;;;;5017862;28;20095;-75
2024/02/22 00:32:49;;;;;;;1.70;0.80;;;10.70;99.90;;;;;;5030370;28;20056;-75
2024/02/22 00:35:16;;;;;;;2.63;0.90;;;10.70;99.90;;;;;;5041537;28;20049;-75
2024/02/22 00:37:43;;;;;;;1.85;0.93;;;10.70;99.90;;;;;;5023270;28;20053;-75
2024/02/22 00:40:14;;;;;;;1.13;0.70;;;10.60;99.90;;;;;;5036072;28;20546;-75
2024/02/22 00:42:41;;;;;;;1.20;0.50;;;10.60;99.90;;;;;;5025261;28;20053;-75
2024/02/22 00:45:09;;;;;;;2.65;0.70;;;10.60;99.90;;;;;;5018305;28;20125;-74
2024/02/22 00:47:36;;;;;;;1.30;0.70;;;10.50;99.90;;;;;;5031754;28;20056;-75
2024/02/22 00:50:03;;;;;;;1.27;0.70;;;10.50;99.90;;;;;;5027795;28;20075;-74
2024/02/22 00:52:30;;;;;;;1.17;0.60;;;10.40;99.90;;;;;;5044324;28;20409;-75
2024/02/22 00:54:57;;;;;;;1.88;0.68;;;10.30;99.90;;;;;;5023880;28;20536;-75
2024/02/22 00:57:24;;;;;;;0.82;0.60;;;10.30;99.90;;;;;;5005782;28;20108;-75
2024/02/22 00:59:51;;;;;;;1.27;0.60;;;10.20;99.90;;;;;;5017743;28;20053;-75
2024/02/22 01:02:18;;;;;;;2.80;0.63;;;10.20;99.90;;;;;;5024974;28;20135;-75
2024/02/22 01:04:45;;;;;;;1.55;0.63;;;10.10;99.90;;;;;;5035314;28;20086;-75
2024/02/22 01:07:12;;;;;;;1.15;0.70;;;10.00;99.90;;;;;;5040935;28;20139;-75
2024/02/22 01:09:39;;;;;;;0.50;0.40;;;10.00;99.90;;;;;;5044170;28;20053;-75
2024/02/22 01:12:07;;;;;;;1.55;0.80;;;9.90;99.90;;;;;;5025152;28;20145;-75
2024/02/22 01:14:33;;;;;;;1.45;0.70;;;9.90;99.90;;;;;;5007506;28;20233;-75
2024/02/22 01:17:00;;;;;;;0.80;0.65;;;9.90;99.90;;;;;;5040475;28;20151;-75
2024/02/22 01:19:27;;;;;;;0.82;0.70;;;9.80;99.90;;;;;;5042792;28;20045;-75
2024/02/22 01:21:56;;;;;;;1.40;0.80;;;9.80;99.90;;;;;;5043428;28;20407;-75
2024/02/22 01:24:24;;;;;;;0.85;0.50;;;9.70;99.90;;;;;;5040890;28;20119;-75
2024/02/22 01:26:51;;;;;;;1.67;0.57;;;9.70;99.90;;;;;;5017543;28;20053;-75
2024/02/22 01:29:18;;;;;;;1.23;0.57;;;9.70;99.90;;;;;;5020334;28;20132;-75
2024/02/22 01:31:45;;;;;;;1.83;0.77;;;9.70;99.90;;;;;;5026674;28;20472;-75
2024/02/22 01:34:12;;;;;;;1.08;0.55;;;9.70;99.90;;;;;;5007036;28;20115;-75
2024/02/22 01:36:40;;;;;;;0.70;0.52;;;9.70;99.90;;;;;;5016655;28;20694;-75
2024/02/22 01:39:09;;;;;;;1.10;0.57;;;9.60;99.90;;;;;;4994651;28;20396;-75
2024/02/22 01:41:36;;;;;;;0.93;0.57;;;9.60;99.90;;;;;;4992281;28;20053;-75
2024/02/22 01:44:04;;;;;;;2.72;1.00;;;9.60;99.90;;;;;;5017786;28;20045;-75
2024/02/22 01:46:32;;;;;;;1.25;0.80;;;9.50;99.90;;;;;;5023947;28;20072;-75
2024/02/22 01:49:00;;;;;;;1.05;0.60;;;9.50;99.90;;;;;;5020573;28;20128;-75
2024/02/22 01:51:27;;;;;;;0.95;0.55;;;9.50;99.90;;;;;;5010755;28;20069;-75
2024/02/22 01:53:55;;;;;;;3.22;0.90;;;9.50;99.90;;;;;;5021822;28;20849;-75
2024/02/22 01:56:22;;;;;;;2.53;1.25;;;9.40;99.90;;;;;;5016635;28;20057;-74
2024/02/22 01:58:49;;;;;;;0.60;0.50;;;9.40;99.90;;;;;;5018057;28;20045;-75
2024/02/22 02:01:19;;;;;;;1.88;0.80;;;9.40;99.90;;;;;;5030467;28;20517;-75
2024/02/22 02:03:45;;;;;;;2.22;1.00;;;9.40;99.90;;;;;;5018431;28;20136;-75
2024/02/22 02:06:12;;;;;;;3.10;0.80;;;9.40;99.90;;;;;;5016329;28;20060;-75
2024/02/22 02:08:40;;;;;;;2.60;1.15;;;9.40;99.90;;;;;;5021923;28;20084;-75
2024/02/22 02:11:07;;;;;;;1.98;0.88;;;9.40;99.90;;;;;;5008386;28;20518;-75
2024/02/22 02:13:35;;;;;;;1.10;0.68;;;9.40;99.90;;;;;;5041459;28;20049;-75
2024/02/22 02:16:02;;;;;;;1.70;1.10;;;9.40;99.90;;;;;;5043110;28;20088;-75
2024/02/22 02:18:28;;;;;;;3.05;1.20;;;9.40;99.90;;;;;;5026085;28;20044;-75
2024/02/22 02:21:00;;;;;;;1.90;1.10;;;9.40;99.90;;;;;;5016187;28;20057;-74
2024/02/22 02:23:52;;;;;;;1.63;0.75;;;9.40;99.90;;;;;;5012405;28;20065;-75
2024/02/22 02:26:20;;;;;;;1.73;0.90;;;9.40;99.90;;;;;;5030178;28;20496;-75
2024/02/22 02:28:46;;;;;;;1.30;0.63;;;9.40;99.90;;;;;;5013745;28;20049;-75
2024/02/22 02:31:13;;;;;;;1.90;0.75;;;9.40;99.90;;;;;;5031540;28;20057;-75
2024/02/22 02:33:41;;;;;;;1.63;0.80;;;9.40;99.90;;;;;;5018101;28;20046;-75
2024/02/22 02:36:08;;;;;;;0.80;0.75;;;9.40;99.90;;;;;;5030214;28;20060;-75
2024/02/22 02:38:35;;;;;;;2.08;0.90;;;9.40;99.90;;;;;;5024005;28;20064;-75
2024/02/22 02:41:01;;;;;;;2.05;1.00;;;9.50;99.90;;;;;;5033029;28;20061;-75
2024/02/22 02:43:28;;;;;;;2.30;1.10;;;9.50;99.90;;;;;;5002393;28;20049;-75
2024/02/22 02:45:55;;;;;;;2.78;1.20;;;9.50;99.90;;;;;;5039600;28;20049;-75
2024/02/22 02:48:23;;;;;;;1.63;0.82;;;9.50;99.90;;;;;;5039099;28;20042;-75
2024/02/22 02:50:50;;;;;;;2.42;1.10;;;9.50;99.90;;;;;;5010051;28;20046;-75
2024/02/22 02:53:17;;;;;;;2.97;1.30;;;9.60;99.90;;;;;;4993297;28;20048;-75
2024/02/22 02:55:44;;;;;;;3.55;1.20;;;9.60;99.90;;;;;;5003041;28;20063;-75
2024/02/22 02:58:11;;;;;;;3.00;1.10;;;9.60;99.90;;;;;;5035730;28;20129;-75
2024/02/22 03:00:38;;;;;;;1.95;0.90;;;9.60;99.90;;;;;;4996519;28;20532;-75
2024/02/22 03:03:05;;;;;;;3.55;0.93;;;9.60;99.90;;;;;;5030892;28;20052;-75
2024/02/22 03:05:31;;;;;;;1.52;0.80;;;9.60;99.90;;;;;;5024020;28;20111;-75
2024/02/22 03:07:59;;;;;;;0.70;0.60;;;9.60;99.90;;;;;;5032103;28;20509;-74
2024/02/22 03:10:25;;;;;;;0.82;0.80;;;9.60;99.90;;;;;;5016855;28;20103;-75
2024/02/22 03:12:53;;;;;;;1.30;0.85;;;9.60;99.90;;;;;;5025086;28;20099;-75
2024/02/22 03:15:20;;;;;;;1.10;0.57;;;9.60;99.90;;;;;;5043009;28;20163;-75
2024/02/22 03:17:47;;;;;;;3.03;1.10;;;9.70;99.90;;;;;;5039839;28;20075;-75
2024/02/22 03:20:17;;;;;;;1.45;0.68;;;9.70;99.90;;;;;;5028083;28;20064;-75
2024/02/22 03:22:44;;;;;;;1.85;0.50;;;9.70;99.90;;;;;;5029079;28;20107;-75
2024/02/22 03:25:12;;;;;;;1.13;0.82;;;9.70;99.90;;;;;;5027201;28;20052;-75
2024/02/22 03:27:39;;;;;;;0.57;0.50;;;9.70;99.90;;;;;;5042524;28;20145;-75
2024/02/22 03:30:08;;;;;;;1.27;0.60;;;9.70;99.90;;;;;;5028037;28;20049;-75
2024/02/22 03:32:36;;;;;;;1.98;0.60;;;9.70;99.90;;;;;;5028058;28;20056;-75
2024/02/22 03:35:06;;;;;;;1.77;0.80;;;9.80;99.90;;;;;;5023072;28;20056;-75
2024/02/22 03:37:33;;;;;;;1.38;0.63;;;9.80;99.90;;;;;;5007356;28;20062;-75
2024/02/22 03:40:00;;;;;;;0.85;0.85;;;9.80;99.90;;;;;;5007508;28;20045;-75
2024/02/22 03:42:28;;;;;;;3.13;1.20;;;9.80;99.90;;;;;;5006317;28;20115;-75
2024/02/22 03:44:55;;;;;;;2.15;0.95;;;9.80;99.90;;;;;;5036369;28;20442;-74
2024/02/22 03:47:22;;;;;;;1.45;0.80;;;9.80;99.90;;;;;;5011799;28;20045;-75
2024/02/22 03:49:49;;;;;;;2.35;0.80;;;9.80;99.90;;;;;;5033867;28;20055;-75
2024/02/22 03:52:17;;;;;;;1.17;0.65;;;9.80;99.90;;;;;;5043888;28;20053;-75
2024/02/22 03:54:43;;;;;;;1.23;0.80;;;9.80;99.90;;;;;;5043723;28;20103;-76
2024/02/22 03:57:11;;;;;;;1.52;0.50;;;9.70;99.90;;;;;;5042135;28;20457;-76
2024/02/22 03:59:37;;;;;;;1.48;0.73;;;9.70;99.90;;;;;;5043405;28;20569;-75
2024/02/22 04:02:04;;;;;;;0.93;0.55;;;9.70;99.90;;;;;;5010690;28;20612;-75
2024/02/22 04:04:31;;;;;;;0.60;0.50;;;9.70;99.90;;;;;;5003494;28;20846;-76
2024/02/22 04:06:58;;;;;;;1.35;0.70;;;9.70;99.90;;;;;;5015779;28;20055;-75
2024/02/22 04:09:25;;;;;;;2.00;0.77;;;9.70;99.90;;;;;;5000372;28;20565;-75
2024/02/22 04:11:52;;;;;;;1.00;0.50;;;9.70;99.90;;;;;;4995424;28;20053;-75
2024/02/22 04:14:19;;;;;;;2.03;0.85;;;9.70;99.90;;;;;;5026975;28;20045;-75
2024/02/22 04:16:46;;;;;;;0.75;0.50;;;9.80;99.90;;;;;;5003937;28;20076;-76
2024/02/22 04:19:13;;;;;;;0.75;0.60;;;9.80;99.90;;;;;;5032705;28;20136;-76
2024/02/22 04:21:44;;;;;;;0.60;0.50;;;9.80;99.90;;;;;;5030052;28;20424;-75
2024/02/22 04:24:11;;;;;;;2.58;0.73;;;9.90;99.90;;;;;;5033961;28;20056;-76
2024/02/22 04:26:46;;;;;;;1.13;0.65;;;9.90;99.90;;;;;;5031620;28;20416;-76
2024/02/22 04:29:15;;;;;;;1.58;0.80;;;10.00;99.90;;;;;;5034639;28;20102;-75
2024/02/22 04:31:43;;;;;;;1.25;0.52;;;10.00;99.90;;;;;;5003901;28;20406;-76
2024/02/22 04:34:10;;;;;;;1.55;0.70;;;10.10;99.90;;;;;;5034027;28;20132;-76
2024/02/22 04:36:39;;;;;;;1.45;0.57;;;10.10;99.90;;;;;;5032615;28;20081;-75
2024/02/22 04:39:09;;;;;;;2.45;0.77;;;10.10;99.90;;;;;;5016677;28;20083;-76
2024/02/22 04:41:40;;;;;;;2.08;0.93;;;10.10;99.90;;;;;;5012743;28;20054;-76
2024/02/22 04:44:07;;;;;;;1.38;0.57;;;10.10;99.90;;;;;;5016280;28;20140;-76
2024/02/22 04:46:37;;;;;;;1.63;0.70;;;10.00;99.90;;;;;;5034309;28;20107;-75
2024/02/22 04:49:04;;;;;;;3.17;1.10;;;10.00;99.90;;;;;;5008825;28;20065;-76
2024/02/22 04:51:32;;;;;;;2.90;0.90;;;9.90;99.90;;;;;;5017450;28;20041;-75
2024/02/22 04:54:00;;;;;;;3.03;0.98;;;9.90;99.90;;;;;;5020891;28;20095;-76
2024/02/22 04:56:28;;;;;;;1.90;0.90;;;9.90;99.90;;;;;;5016762;28;20053;-76
2024/02/22 04:58:55;;;;;;;2.60;0.98;;;9.90;99.90;;;;;;5025534;28;20068;-77
2024/02/22 05:01:23;;;;;;;1.67;0.88;;;9.80;99.90;;;;;;4998489;28;20116;-76
2024/02/22 05:03:50;;;;;;;2.10;0.98;;;9.80;99.90;;;;;;5015592;28;20132;-75
2024/02/22 05:06:17;;;;;;;1.70;0.70;;;9.80;99.90;;;;;;5031636;28;20126;-75
2024/02/22 05:08:44;;;;;;;2.58;0.80;;;9.80;99.90;;;;;;5036533;28;20076;-76
2024/02/22 05:11:17;;;;;;;0.98;0.70;;;9.80;99.90;;;;;;5022348;28;20044;-76
2024/02/22 05:13:53;;;;;;;0.73;0.55;;;9.90;99.90;;;;;;5005499;28;20672;-88
2024/02/22 05:16:20;;;;;;;3.75;1.23;;;9.90;99.90;;;;;;5008417;28;20041;-80
2024/02/22 05:18:47;;;;;;;1.98;0.80;;;10.00;99.90;;;;;;5034227;28;20053;-80
2024/02/22 05:21:14;;;;;;;2.70;0.95;;;10.00;99.90;;;;;;4998076;28;20048;-80
2024/02/22 05:23:41;;;;;;;1.45;0.70;;;10.10;99.90;;;;;;5008556;28;20061;-82
2024/02/22 05:26:07;;;;;;;1.98;0.90;;;10.10;99.90;;;;;;5040555;28;20060;-80
2024/02/22 05:28:35;;;;;;;2.22;0.80;;;10.10;99.90;;;;;;5023437;28;20053;-80
2024/02/22 05:31:03;;;;;;;1.10;0.63;;;10.10;99.90;;;;;;5022210;28;20077;-79
2024/02/22 05:33:30;;;;;;;1.88;0.88;;;10.10;99.90;;;;;;5024176;28;20132;-80
2024/02/22 05:35:57;;;;;;;1.85;0.77;;;10.10;99.90;;;;;;5043332;28;20064;-80
2024/02/22 05:38:24;;;;;;;0.95;0.63;;;10.10;99.90;;;;;;5043047;28;20056;-81
2024/02/22 05:40:52;;;;;;;1.98;0.70;;;10.10;99.90;;;;;;5042033;28;20076;-80
2024/02/22 05:43:19;;;;;;;1.17;0.93;;;10.10;99.90;;;;;;5043130;28;20052;-80
2024/02/22 05:45:46;;;;;;;1.75;0.75;;;10.00;99.90;;;;;;5042790;28;20056;-80
2024/02/22 05:48:13;;;;;;;1.05;0.50;;;10.00;99.90;;;;;;5037130;28;20049;-79
2024/02/22 05:50:41;;;;;;;1.20;0.52;;;9.90;99.90;;;;;;5023397;28;20073;-80
2024/02/22 05:53:09;;;;;;;1.13;0.52;;;10.00;99.90;;;;;;5023142;28;20057;-80
2024/02/22 05:55:37;;;;;;;1.65;0.70;;;10.00;99.90;;;;;;5030881;28;20048;-80
2024/02/22 05:58:04;;;;;;;1.08;0.50;;;10.00;99.90;;;;;;5022281;28;20140;-80
2024/02/22 06:00:32;;;;;;;0.75;0.57;;;10.00;99.90;;;;;;5042048;28;20606;-81
2024/02/22 06:02:59;;;;;;;1.13;0.65;;;10.10;99.90;;;;;;5035305;28;20045;-80
2024/02/22 06:05:26;;;;;;;1.15;0.70;;;10.10;99.90;;;;;;5031273;28;20077;-80
2024/02/22 06:07:54;;;;;;;1.60;0.73;;;10.10;99.90;;;;;;5041358;28;20044;-80
2024/02/22 06:10:21;;;;;;;0.90;0.40;;;10.10;99.90;;;;;;5039389;28;20206;-79
2024/02/22 06:12:48;;;;;;;1.63;0.60;;;10.20;99.90;;;;;;5042715;28;20076;-80
2024/02/22 06:15:15;;;;;;;3.42;0.80;;;10.20;99.90;;;;;;5039377;28;20103;-79
2024/02/22 06:17:42;;;;;;;1.58;0.70;;;10.20;99.90;;;;;;5029394;28;20103;-80
2024/02/22 06:20:09;;;;;;;0.85;0.70;;;10.20;99.90;;;;;;5039397;28;20049;-80
2024/02/22 06:22:36;;;;;;;1.92;0.90;;;10.20;99.90;;;;;;5029785;28;20136;-80
2024/02/22 06:25:03;;;;;;;0.73;0.63;;;10.20;99.90;;;;;;5038419;28;20041;-79
2024/02/22 06:27:30;;;;;;;1.77;0.90;;;10.30;99.90;;;;;;5029307;28;20119;-80
2024/02/22 06:29:57;;;;;;;2.13;0.85;;;10.30;99.90;;;;;;5040996;28;20052;-79
2024/02/22 06:32:24;;;;;;;1.27;0.63;;;10.30;99.90;;;;;;5023016;28;20057;-79
2024/02/22 06:34:51;;;;;;;1.23;0.57;;;10.30;99.90;;;;;;5021558;28;20560;-79
2024/02/22 06:37:18;;;;;;;1.88;0.70;;;10.30;99.90;;;;;;5042952;28;20068;-80
2024/02/22 06:39:45;;;;;;;1.13;0.70;;;10.30;99.90;;;;;;5047888;28;20055;-80
2024/02/22 06:42:13;;;;;;;0.82;0.63;;;10.30;99.90;;;;;;5042225;28;20049;-79
2024/02/22 06:44:41;;;;;;;1.25;0.73;;;10.30;99.90;;;;;;5023305;28;20124;-79
2024/02/22 06:47:07;;;;;;;1.10;0.60;;;10.30;99.90;;;;;;5038702;28;20134;-79
2024/02/22 06:49:35;;;;;;;1.33;0.68;;;10.30;99.90;;;;;;5036804;28;20054;-79
2024/02/22 06:52:02;;;;;;;1.42;1.00;;;10.30;99.90;;;;;;5035826;28;20048;-80
2024/02/22 06:54:29;;;;;;;0.98;0.70;;;10.30;99.90;;;;;;5038651;28;20052;-80
2024/02/22 06:56:57;;;;;;;1.00;0.70;;;10.30;99.90;;;;;;5043247;28;20053;-79
2024/02/22 06:59:24;;;;;;;1.52;0.47;;;10.30;99.90;;;;;;5043191;28;20057;-79
2024/02/22 07:01:51;;;;;;;1.77;0.75;;;10.30;99.90;;;;;;5043854;28;20422;-79
2024/02/22 07:04:18;;;;;;;1.90;0.80;;;10.30;99.90;;;;;;5037221;28;20048;-81
2024/02/22 07:06:45;;;;;;;1.23;0.60;;;10.30;99.90;;;;;;5044995;28;20404;-81
2024/02/22 07:09:12;;;;;;;1.35;0.70;;;10.40;99.90;;;;;;5029029;28;20136;-79
2024/02/22 07:11:39;;;;;;;1.70;0.60;;;10.40;99.90;;;;;;5026718;28;20827;-79
2024/02/22 07:14:05;;;;;;;0.93;0.63;;;10.40;99.90;;;;;;5034909;28;20776;-79
2024/02/22 07:16:33;;;;;;;1.05;0.50;;;10.40;99.90;;;;;;5039355;28;20040;-79
2024/02/22 07:19:00;;;;;;;1.88;1.10;;;10.40;99.90;;;;;;5047351;28;20084;-80
2024/02/22 07:21:34;;;;;;;1.33;0.60;;;10.50;99.90;;;;;;5045524;28;20092;-79
2024/02/22 07:24:03;;;;;;;1.08;0.60;;;10.50;99.90;;;;;;5041172;28;20130;-79
2024/02/22 07:26:33;;;;;;;2.72;0.60;;;10.50;99.90;;;;;;5044997;28;20052;-80
2024/02/22 07:29:00;;;;;;;2.17;0.93;;;10.50;99.90;;;;;;5042720;28;20420;-80
2024/02/22 07:31:27;;;;;;;0.90;0.68;;;10.50;99.90;;;;;;5043344;28;20052;-81
2024/02/22 07:33:54;;;;;;;1.23;0.80;;;10.50;99.90;;;;;;5043491;28;20448;-80
2024/02/22 07:36:21;;;;;;;1.48;0.60;;;10.50;99.90;;;;;;5044828;28;20049;-79
2024/02/22 07:38:48;;;;;;;1.55;0.57;;;10.50;99.90;;;;;;5044610;28;20060;-79
2024/02/22 07:41:15;;;;;;;0.85;0.60;;;10.60;99.90;;;;;;5042739;28;20076;-79
2024/02/22 07:43:43;;;;;;;1.48;0.57;;;10.60;99.90;;;;;;5022829;28;20507;-79
2024/02/22 07:46:13;;;;;;;0.65;0.55;;;10.60;99.90;;;;;;5026511;28;20049;-79
2024/02/22 07:48:40;;;;;;;0.85;0.70;;;10.60;99.90;;;;;;5045052;28;20053;-80
2024/02/22 07:51:08;;;;;;;0.60;0.57;;;10.60;99.90;;;;;;5046563;28;20056;-80
2024/02/22 07:53:35;;;;;;;0.93;0.73;;;10.60;99.90;;;;;;5045213;28;20060;-79
2024/02/22 07:56:25;;;;;;;0.65;0.60;;;10.70;99.90;;;;;;5043624;28;20049;-79
2024/02/22 07:58:54;;;;;;;0.40;0.40;;;10.70;99.90;;;;;;5046470;28;20049;-80
2024/02/22 08:01:20;;;;;;;0.73;0.60;;;10.70;99.90;;;;;;5044920;28;20172;-80
2024/02/22 08:03:49;;;;;;;0.65;0.57;;;10.70;99.90;;;;;;5024322;28;20421;-79
2024/02/22 08:06:16;;;;;;;0.57;0.30;;;10.70;99.90;;;;;;5046083;28;20045;-80
2024/02/22 08:08:43;;;;;;;0.40;0.40;;;10.80;99.90;;;;;;5045643;28;20262;-79
2024/02/22 08:11:13;;;;;;;0.50;0.40;;;10.80;99.90;;;;;;5044962;28;20045;-80
2024/02/22 08:13:40;;;;;;;0.30;0.30;;;10.80;99.90;;;;;;5045306;28;20060;-80
2024/02/22 08:16:08;;;;;;;0.32;0.32;;;10.90;99.90;;;;;;5045734;28;20060;-81
2024/02/22 08:18:35;;;;;;;0.50;0.50;;;10.90;99.90;;;;;;5046019;28;20055;-80
2024/02/22 08:21:02;;;;;;;0.40;0.40;;;10.90;99.90;;;;;;5044420;28;20963;-80
2024/02/22 08:23:29;;;;;;;0.10;0.10;;;10.90;99.90;;;;;;5044281;28;20049;-80
2024/02/22 08:25:56;;;;;;;0.30;0.30;;;11.00;99.90;;;;;;5043966;28;20122;-80
2024/02/22 08:28:23;;;;;;;0.30;0.30;;;11.00;99.90;;;;;;5044965;28;20093;-80
2024/02/22 08:30:51;;;;;;;0.30;0.30;;;11.00;99.90;;;;;;5045323;28;20514;-79
2024/02/22 08:33:24;;;;;;;0.25;0.25;;;11.10;99.90;;;;;;5044445;28;20061;-80
2024/02/22 08:35:52;;;;;;;0.28;0.28;;;11.10;99.90;;;;;;5041182;28;20136;-81
2024/02/22 08:38:21;;;;;;;0.30;0.30;;;11.20;99.90;;;;;;5024644;28;20150;-80
2024/02/22 08:40:48;;;;;;;0.30;0.30;;;11.30;99.90;;;;;;5040842;28;20056;-80
2024/02/22 08:43:16;;;;;;;0.30;0.30;;;11.40;99.90;;;;;;5041572;28;20052;-80
2024/02/22 08:45:43;;;;;;;0.20;0.20;;;11.40;99.90;;;;;;5043084;28;20057;-80
2024/02/22 08:48:09;;;;;;;0.30;0.30;;;11.40;99.90;;;;;;5044347;28;20114;-80
2024/02/22 08:50:36;;;;;;;0.20;0.20;;;11.40;99.90;;;;;;5043980;28;20064;-80
2024/02/22 08:53:04;;;;;;;0.28;0.28;;;11.40;99.90;;;;;;5044209;28;20145;-81
2024/02/22 08:55:31;;;;;;;0.22;0.22;;;11.50;99.90;;;;;;5043026;28;20383;-80
2024/02/22 08:57:58;;;;;;;0.32;0.32;;;11.50;99.90;;;;;;5044380;28;20143;-80
2024/02/22 09:00:27;;;;;;;0.30;0.30;;;11.60;99.90;;;;;;5045596;28;20049;-80
2024/02/22 09:02:55;;;;;;;0.35;0.35;;;11.60;99.90;;;;;;5044617;28;20057;-81
2024/02/22 09:05:22;;;;;;;0.75;0.28;;;11.50;99.90;;;;;;5043796;28;20052;-81
2024/02/22 09:07:49;;;;;;;0.30;0.30;;;11.60;99.90;;;;;;5041701;28;20671;-81
2024/02/22 09:10:17;;;;;;;0.20;0.20;;;11.70;99.90;;;;;;5041564;28;20053;-81
2024/02/22 09:12:44;;;;;;;0.32;0.32;;;11.70;99.90;;;;;;5041786;28;20048;-80
2024/02/22 09:15:12;;;;;;;0.40;0.40;;;11.70;99.90;;;;;;5043484;28;20495;-80
2024/02/22 09:17:39;;;;;;;0.63;0.50;;;11.60;99.90;;;;;;5044810;28;20490;-80
2024/02/22 09:20:06;;;;;;;0.80;0.80;;;11.60;99.90;;;;;;5043408;28;20455;-78
2024/02/22 09:22:33;;;;;;;0.30;0.30;;;11.50;99.90;;;;;;5043330;28;20052;-78
2024/02/22 09:25:00;;;;;;;0.45;0.45;;;11.50;99.90;;;;;;5040305;28;20082;-79
2024/02/22 09:27:29;;;;;;;0.30;0.30;;;11.40;99.90;;;;;;5037897;28;20694;-78
2024/02/22 09:29:58;;;;;;;0.30;0.30;;;11.40;99.90;;;;;;5042915;28;20124;-79
2024/02/22 09:32:25;;;;;;;0.40;0.40;;;11.40;99.90;;;;;;5027051;28;20041;-79
2024/02/22 09:34:52;;;;;;;0.30;0.30;;;11.40;99.90;;;;;;5043299;28;20126;-78
2024/02/22 09:37:20;;;;;;;0.38;0.38;;;11.60;99.90;;;;;;5029257;28;20141;-79
2024/02/22 09:39:50;;;;;;;0.30;0.30;;;11.60;99.90;;;;;;5043050;28;20045;-79
2024/02/22 09:42:18;;;;;;;0.25;0.25;;;11.70;99.90;;;;;;5028317;28;20057;-80
2024/02/22 09:44:47;;;;;;;0.22;0.22;;;11.70;99.90;;;;;;5040749;28;20073;-79
2024/02/22 09:47:16;;;;;;;0.30;0.30;;;11.70;99.90;;;;;;5043755;28;20052;-80
2024/02/22 09:49:43;;;;;;;0.40;0.30;;;11.70;99.90;;;;;;5039867;28;20052;-80
2024/02/22 09:52:11;;;;;;;0.20;0.20;;;11.70;99.90;;;;;;5039870;28;20053;-80
2024/02/22 09:54:38;;;;;;;0.30;0.30;;;11.80;99.90;;;;;;5026536;28;20475;-80
2024/02/22 09:57:05;;;;;;;0.40;0.40;;;12.00;99.90;;;;;;5040976;28;20483;-81
2024/02/22 09:59:31;;;;;;;0.30;0.30;;;12.10;99.90;;;;;;5026244;28;20080;-81
2024/02/22 10:01:59;;;;;;;0.47;0.40;;;12.20;99.90;;;;;;5042857;28;20041;-80
2024/02/22 10:04:27;;;;;;;0.20;0.20;;;12.30;99.90;;;;;;5044398;28;20059;-80
2024/02/22 10:07:00;;;;;;;0.35;0.35;;;12.40;99.90;;;;;;5043403;28;20052;-81
2024/02/22 10:09:28;;;;;;;0.40;0.40;;;12.40;99.90;;;;;;5025836;28;20052;-80
2024/02/22 10:11:54;;;;;;;0.60;0.50;;;12.30;99.90;;;;;;5041608;28;20041;-80
2024/02/22 10:14:22;;;;;;;0.40;0.40;;;12.30;99.90;;;;;;5026143;28;20552;-82
2024/02/22 10:16:49;;;;;;;0.35;0.35;;;12.30;99.90;;;;;;5042562;28;20041;-80
2024/02/22 10:19:16;;;;;;;0.22;0.22;;;12.40;99.90;;;;;;5044166;28;20041;-81
2024/02/22 10:21:44;;;;;;;0.30;0.30;;;12.40;99.90;;;;;;5040454;28;20049;-81
2024/02/22 10:24:11;;;;;;;0.40;0.40;;;12.60;99.90;;;;;;5038970;28;20048;-81
2024/02/22 10:26:38;;;;;;;0.30;0.30;;;12.70;99.90;;;;;;5039426;28;20060;-81
2024/02/22 10:29:08;;;;;;;0.40;0.40;;;12.70;99.90;;;;;;5040680;28;20497;-79
2024/02/22 10:31:47;;;;;;;0.20;0.20;;;12.80;99.90;;;;;;5039829;28;20083;-81
2024/02/22 10:34:14;;;;;;;0.30;0.30;;;12.80;99.90;;;;;;5039212;28;20053;-81
2024/02/22 10:36:44;;;;;;;0.22;0.22;;;12.70;99.90;;;;;;5040602;28;20052;-78
2024/02/22 10:39:12;;;;;;;0.30;0.30;;;12.70;99.90;;;;;;5043478;28;20127;-79
2024/02/22 10:41:39;;;;;;;0.30;0.30;;;12.80;99.90;;;;;;5024836;28;20049;-79
2024/02/22 10:44:06;;;;;;;0.30;0.30;;;12.70;99.90;;;;;;5044027;28;20110;-80
2024/02/22 10:46:37;;;;;;;0.30;0.30;;;12.80;99.90;;;;;;5043870;28;20079;-79
2024/02/22 10:49:10;;;;;;;0.20;0.20;;;12.80;99.90;;;;;;5042459;28;20510;-80
2024/02/22 10:51:41;;;;;;;0.35;0.35;;;12.90;99.90;;;;;;5043545;28;20049;-79
2024/02/22 10:54:09;;;;;;;1.20;0.30;;;12.90;99.90;;;;;;5040408;28;20064;-79
2024/02/22 10:56:39;;;;;;;0.35;0.35;;;13.00;99.90;;;;;;5037360;28;20048;-80
2024/02/22 10:59:07;;;;;;;0.30;0.30;;;13.10;99.90;;;;;;5040168;28;20114;-79
2024/02/22 11:01:33;;;;;;;0.35;0.35;;;13.20;99.90;;;;;;5042108;28;20045;-79
2024/02/22 11:04:01;;;;;;;0.30;0.30;;;13.20;99.90;;;;;;5043325;28;20045;-80
2024/02/22 11:06:28;;;;;;;0.35;0.35;;;13.20;99.90;;;;;;5042239;28;20053;-79
2024/02/22 11:09:00;;;;;;;0.28;0.28;;;13.30;99.90;;;;;;5025108;28;20107;-80
2024/02/22 11:11:32;;;;;;;0.40;0.40;;;13.30;99.90;;;;;;5024482;28;20363;-80
2024/02/22 11:14:02;;;;;;;0.38;0.38;;;13.40;99.90;;;;;;5042194;28;20534;-81
2024/02/22 11:16:38;;;;;;;0.50;0.30;;;13.40;99.90;;;;;;5042016;28;20065;-80
2024/02/22 11:19:08;;;;;;;0.13;0.13;;;13.40;99.90;;;;;;5046402;28;20525;-80
2024/02/22 11:21:39;;;;;;;0.40;0.40;;;13.30;99.90;;;;;;5046967;28;20053;-79
2024/02/22 11:24:13;;;;;;;0.40;0.40;;;13.40;99.90;;;;;;5027110;28;20056;-80
2024/02/22 11:26:40;;;;;;;0.45;0.40;;;13.40;99.90;;;;;;5041023;28;20055;-80
2024/02/22 11:29:08;;;;;;;0.40;0.38;;;13.40;99.90;;;;;;5043993;28;20061;-79
2024/02/22 11:31:35;;;;;;;0.40;0.40;;;13.40;99.90;;;;;;5045963;28;20052;-80
2024/02/22 11:34:02;;;;;;;0.82;0.55;;;13.40;99.90;;;;;;5045665;28;20057;-80
2024/02/22 11:36:29;;;;;;;0.30;0.30;;;13.40;99.90;;;;;;5028909;28;20052;-80
2024/02/22 11:39:00;;;;;;;1.20;0.40;;;13.30;99.90;;;;;;5042694;28;20056;-80
2024/02/22 11:41:28;;;;;;;0.30;0.30;;;13.20;99.90;;;;;;5023939;28;20045;-80
2024/02/22 11:44:06;;;;;;;2.40;0.50;;;13.20;99.90;;;;;;5033345;28;20461;-80
2024/02/22 11:46:37;;;;;;;0.35;0.35;;;13.10;99.90;;;;;;5045003;28;20058;-80
2024/02/22 11:49:05;;;;;;;0.47;0.40;;;13.20;99.90;;;;;;5042844;28;20140;-80
2024/02/22 11:51:32;;;;;;;0.30;0.30;;;13.30;99.90;;;;;;5041856;28;20049;-80
2024/02/22 11:53:59;;;;;;;0.55;0.30;;;13.20;99.90;;;;;;5043234;28;20056;-81
2024/02/22 11:56:26;;;;;;;0.52;0.50;;;13.20;99.90;;;;;;5027376;28;20061;-80
2024/02/22 11:58:57;;;;;;;0.90;0.40;;;13.20;99.90;;;;;;5045174;28;20391;-80
2024/02/22 12:01:27;;;;;;;0.68;0.30;;;13.10;99.90;;;;;;5028981;28;20613;-80
2024/02/22 12:03:54;;;;;;;0.50;0.50;;;13.00;99.90;;;;;;5044883;28;20049;-80
2024/02/22 12:06:21;;;;;;;0.47;0.40;;;13.00;99.90;;;;;;5041856;28;20083;-81
2024/02/22 12:08:52;;;;;;;0.45;0.40;;;12.90;99.90;;;;;;5043067;28;20077;-81
2024/02/22 12:11:19;;;;;;;0.20;0.20;;;12.70;99.90;;;;;;5025784;28;20048;-79
2024/02/22 12:13:57;;;;;;;0.38;0.35;;;12.00;99.90;;;;;;5028699;28;20049;-80
2024/02/22 12:16:26;;;;;;;0.73;0.50;;;11.20;99.90;;;;;;5028526;28;20136;-80
2024/02/22 12:18:53;;;;;;;0.50;0.50;;;10.50;99.90;;;;;;5045250;28;20592;-79
2024/02/22 12:21:22;;;;;;;0.30;0.30;;;9.90;99.90;;;;;;5012310;28;20048;-80
2024/02/22 12:23:55;;;;;;;0.32;0.32;;;9.80;99.90;;;;;;5044051;28;20049;-80
2024/02/22 12:26:22;;;;;;;0.35;0.35;;;9.70;99.90;;;;;;5023491;28;20045;-80
2024/02/22 12:28:51;;;;;;;0.68;0.47;;;9.50;99.90;;;;;;5040697;28;20053;-81
2024/02/22 12:31:18;;;;;;;0.30;0.30;;;9.50;99.90;;;;;;5040985;28;20108;-81
2024/02/22 12:33:48;;;;;;;0.30;0.30;;;9.40;99.90;;;;;;5026957;28;20080;-81
2024/02/22 12:36:16;;;;;;;0.63;0.40;;;9.30;99.90;;;;;;5044059;28;20491;-80
2024/02/22 12:38:44;;;;;;;0.40;0.40;;;9.20;99.90;;;;;;5043613;28;20061;-80
2024/02/22 12:41:12;;;;;;;0.30;0.30;;;9.20;99.90;;;;;;5027608;28;20041;-79
2024/02/22 12:43:46;;;;;;;0.38;0.38;;;9.30;99.90;;;;;;5008201;28;20407;-79
2024/02/22 12:46:13;;;;;;;0.40;0.40;;;9.30;99.90;;;;;;5031324;28;20060;-79
2024/02/22 12:48:40;;;;;;;0.50;0.50;;;9.30;99.90;;;;;;5044303;28;20049;-79
2024/02/22 12:51:08;;;;;;;0.32;0.32;;;9.30;99.90;;;;;;5011500;28;20053;-79
2024/02/22 12:53:35;;;;;;;0.70;0.30;;;9.30;99.90;;;;;;5044714;28;20041;-79